Time;durP1;ratioP1;P1;durP2;ratioP2;P2;SDS_P1;SDS_P2;PMS_P1;PMS_P2;Temp;Humidity;BMP_temperature;BMP_pressure;BME280_temperature;BME280_humidity;BME280_pressure;Samples;Min_cycle;Max_cycle;Signal;HPM_P1;HPM_P2
2022/10/07 00:01:12;;;;;;;5.77;3.00;;;;;;;;;;5084415;28;20220;-73
2022/10/07 00:03:39;;;;;;;6.57;3.23;;;;;;;;;;5081176;28;20650;-73
2022/10/07 00:06:16;;;;;;;7.80;3.33;;;;;;;;;;5076092;28;20299;-73
2022/10/07 00:08:43;;;;;;;6.73;3.10;;;;;;;;;;5081005;28;20239;-73
2022/10/07 00:11:12;;;;;;;5.53;2.53;;;;;;;;;;5085677;28;20195;-73
2022/10/07 00:13:39;;;;;;;8.27;2.90;;;;;;;;;;5085736;28;20242;-73
2022/10/07 00:16:06;;;;;;;6.10;2.80;;;;;;;;;;5077140;28;20276;-73
2022/10/07 00:18:33;;;;;;;5.00;3.37;;;;;;;;;;5084417;28;20234;-73
2022/10/07 00:21:07;;;;;;;5.60;3.00;;;;;;;;;;5084909;28;20200;-74
2022/10/07 00:23:33;;;;;;;11.33;4.00;;;;;;;;;;5080003;28;20185;-73
2022/10/07 00:26:03;;;;;;;5.97;3.00;;;;;;;;;;5066966;28;20703;-73
2022/10/07 00:28:29;;;;;;;5.87;2.87;;;;;;;;;;5082005;28;20268;-73
2022/10/07 00:31:00;;;;;;;8.17;3.43;;;;;;;;;;5065639;28;20315;-73
2022/10/07 00:33:26;;;;;;;4.57;3.10;;;;;;;;;;5083227;28;20743;-73
2022/10/07 00:35:52;;;;;;;8.60;3.80;;;;;;;;;;5083658;28;20172;-72
2022/10/07 00:38:18;;;;;;;7.03;3.70;;;;;;;;;;5083442;28;20177;-72
2022/10/07 00:40:45;;;;;;;5.87;3.30;;;;;;;;;;5081352;28;20242;-73
2022/10/07 00:43:31;;;;;;;6.80;3.93;;;;;;;;;;5075779;28;20271;-73
2022/10/07 00:45:59;;;;;;;7.13;4.00;;;;;;;;;;5079161;28;20265;-73
2022/10/07 00:48:30;;;;;;;8.23;4.40;;;;;;;;;;5089125;28;20237;-73
2022/10/07 00:50:57;;;;;;;7.73;4.27;;;;;;;;;;5065418;28;20193;-73
2022/10/07 00:53:25;;;;;;;10.73;4.00;;;;;;;;;;5082280;28;20579;-73
2022/10/07 00:55:51;;;;;;;8.13;3.83;;;;;;;;;;5061502;28;20280;-73
2022/10/07 00:58:18;;;;;;;7.17;4.60;;;;;;;;;;5058204;28;20207;-74
2022/10/07 01:00:44;;;;;;;10.13;4.00;;;;;;;;;;5083848;28;20204;-73
2022/10/07 01:03:11;;;;;;;10.07;4.00;;;;;;;;;;5064284;28;20884;-73
2022/10/07 01:05:37;;;;;;;6.93;3.77;;;;;;;;;;5079800;28;20219;-73
2022/10/07 01:08:03;;;;;;;6.87;3.53;;;;;;;;;;5085092;28;20185;-73
2022/10/07 01:10:45;;;;;;;7.33;3.70;;;;;;;;;;5084279;28;20234;-73
2022/10/07 01:13:22;;;;;;;8.63;4.27;;;;;;;;;;5047887;28;20180;-73
2022/10/07 01:16:09;;;;;;;6.87;4.13;;;;;;;;;;5060531;28;20622;-73
2022/10/07 01:18:51;;;;;;;7.87;3.63;;;;;;;;;;5080759;28;20188;-73
2022/10/07 01:21:35;;;;;;;5.33;3.67;;;;;;;;;;5084586;28;20204;-73
2022/10/07 01:24:32;;;;;;;5.53;3.83;;;;;;;;;;5081798;28;20267;-73
2022/10/07 01:27:05;;;;;;;5.43;3.50;;;;;;;;;;4967727;28;20316;-73
2022/10/07 01:29:40;;;;;;;5.13;3.20;;;;;;;;;;5078773;28;20486;-73
2022/10/07 01:32:11;;;;;;;4.97;2.80;;;;;;;;;;5078453;28;20196;-73
2022/10/07 01:34:38;;;;;;;5.90;2.90;;;;;;;;;;5078601;28;20191;-73
2022/10/07 01:37:05;;;;;;;7.13;3.07;;;;;;;;;;5079848;28;20520;-73
2022/10/07 01:39:34;;;;;;;4.60;2.90;;;;;;;;;;5076245;28;20200;-73
2022/10/07 01:42:00;;;;;;;5.63;3.27;;;;;;;;;;5083484;28;20227;-74
2022/10/07 01:44:29;;;;;;;5.23;3.07;;;;;;;;;;5080901;28;20212;-74
2022/10/07 01:46:56;;;;;;;4.67;2.90;;;;;;;;;;5080703;28;20173;-74
2022/10/07 01:49:22;;;;;;;5.30;2.97;;;;;;;;;;5067970;28;20799;-74
2022/10/07 01:51:53;;;;;;;5.30;2.90;;;;;;;;;;5078693;28;20196;-74
2022/10/07 01:54:20;;;;;;;5.13;3.03;;;;;;;;;;5080193;28;20622;-74
2022/10/07 01:56:46;;;;;;;4.90;2.53;;;;;;;;;;5076461;28;20232;-74
2022/10/07 01:59:14;;;;;;;5.17;3.00;;;;;;;;;;5060260;28;20210;-73
2022/10/07 02:01:53;;;;;;;5.23;3.03;;;;;;;;;;5085138;28;20291;-73
2022/10/07 02:04:29;;;;;;;3.70;2.60;;;;;;;;;;5080938;28;20215;-73
2022/10/07 02:07:17;;;;;;;6.87;2.87;;;;;;;;;;5083084;28;20208;-73
2022/10/07 02:09:58;;;;;;;6.27;3.30;;;;;;;;;;5038656;28;20622;-74
2022/10/07 02:12:39;;;;;;;203.57;11.10;;;;;;;;;;5071735;28;20212;-73
2022/10/07 02:15:10;;;;;;;18.53;5.40;;;;;;;;;;5062041;28;20264;-73
2022/10/07 02:17:40;;;;;;;8.27;3.43;;;;;;;;;;5072309;28;20176;-74
2022/10/07 02:20:10;;;;;;;6.70;3.33;;;;;;;;;;5090132;28;20184;-74
2022/10/07 02:22:38;;;;;;;5.33;2.87;;;;;;;;;;5069747;28;20465;-74
2022/10/07 02:25:05;;;;;;;6.57;2.77;;;;;;;;;;5083303;28;20296;-73
2022/10/07 02:27:33;;;;;;;6.97;3.50;;;;;;;;;;5057720;28;20200;-73
2022/10/07 02:30:06;;;;;;;4.67;3.17;;;;;;;;;;5065767;28;20177;-73
2022/10/07 02:32:33;;;;;;;6.03;2.87;;;;;;;;;;5062422;28;20247;-73
2022/10/07 02:35:02;;;;;;;151.70;9.40;;;;;;;;;;5089451;28;20287;-73
2022/10/07 02:37:31;;;;;;;47.33;17.43;;;;;;;;;;5069337;28;20230;-73
2022/10/07 02:39:58;;;;;;;5.13;3.00;;;;;;;;;;5066558;28;20192;-73
2022/10/07 02:42:27;;;;;;;8.67;3.67;;;;;;;;;;5066771;28;20679;-73
2022/10/07 02:45:09;;;;;;;7.87;3.20;;;;;;;;;;5085226;28;20216;-73
2022/10/07 02:47:40;;;;;;;5.43;3.23;;;;;;;;;;5067341;28;20172;-73
2022/10/07 02:50:09;;;;;;;43.07;39.13;;;;;;;;;;5058324;28;20590;-73
2022/10/07 02:52:36;;;;;;;8.03;3.27;;;;;;;;;;5065881;28;20248;-74
2022/10/07 02:55:05;;;;;;;9.73;3.50;;;;;;;;;;5066502;28;20184;-74
2022/10/07 02:57:40;;;;;;;6.03;4.83;;;;;;;;;;5070211;28;20615;-74
2022/10/07 03:00:07;;;;;;;1.20;0.93;;;;;;;;;;5049463;28;20203;-73
2022/10/07 03:02:45;;;;;;;3.97;2.77;;;;;;;;;;5063832;28;20204;-73
2022/10/07 03:05:12;;;;;;;8.47;3.10;;;;;;;;;;5063327;28;20220;-73
2022/10/07 03:07:39;;;;;;;4.90;2.50;;;;;;;;;;5069548;28;20660;-74
2022/10/07 03:10:07;;;;;;;8.97;8.07;;;;;;;;;;5067362;28;20204;-73
2022/10/07 03:12:33;;;;;;;7.80;2.93;;;;;;;;;;5081081;28;20199;-74
2022/10/07 03:15:00;;;;;;;7.17;2.90;;;;;;;;;;5070629;28;20215;-73
2022/10/07 03:17:26;;;;;;;47.23;14.87;;;;;;;;;;5066240;28;20376;-73
2022/10/07 03:19:52;;;;;;;5.13;2.80;;;;;;;;;;5069489;28;20192;-73
2022/10/07 03:22:19;;;;;;;6.90;3.33;;;;;;;;;;5084759;28;20262;-73
2022/10/07 03:24:46;;;;;;;860.23;351.93;;;;;;;;;;5080361;28;20195;-74
2022/10/07 03:27:12;;;;;;;5.57;2.93;;;;;;;;;;5062322;28;20185;-74
2022/10/07 03:29:39;;;;;;;6.83;5.10;;;;;;;;;;5063776;28;20181;-74
2022/10/07 03:32:06;;;;;;;8.50;4.00;;;;;;;;;;5070379;28;20204;-73
2022/10/07 03:34:33;;;;;;;6.70;3.00;;;;;;;;;;5060233;28;20176;-73
2022/10/07 03:37:00;;;;;;;4.90;2.70;;;;;;;;;;5065631;28;20188;-73
2022/10/07 03:39:27;;;;;;;6.23;3.17;;;;;;;;;;5070187;28;20188;-73
2022/10/07 03:41:55;;;;;;;2.90;2.47;;;;;;;;;;5069474;28;20212;-73
2022/10/07 03:44:22;;;;;;;4.60;2.50;;;;;;;;;;5062057;28;21317;-73
2022/10/07 03:46:50;;;;;;;4.35;3.45;;;;;;;;;;5061730;28;20491;-73
2022/10/07 03:49:19;;;;;;;6.07;3.10;;;;;;;;;;5070525;28;20621;-73
2022/10/07 03:51:45;;;;;;;5.63;2.90;;;;;;;;;;5069334;28;20679;-73
2022/10/07 03:54:11;;;;;;;5.10;2.80;;;;;;;;;;5053031;28;20184;-73
2022/10/07 03:56:38;;;;;;;5.07;2.70;;;;;;;;;;5067730;28;20267;-73
2022/10/07 03:59:05;;;;;;;6.07;3.07;;;;;;;;;;5067918;28;20342;-73
2022/10/07 04:01:31;;;;;;;5.97;2.80;;;;;;;;;;5057505;28;20345;-73
2022/10/07 04:03:59;;;;;;;5.30;2.80;;;;;;;;;;5068541;28;20185;-73
2022/10/07 04:06:27;;;;;;;3.93;2.80;;;;;;;;;;5067529;28;20549;-73
2022/10/07 04:08:55;;;;;;;3.07;2.60;;;;;;;;;;5060339;28;20173;-73
2022/10/07 04:11:23;;;;;;;3.80;2.63;;;;;;;;;;5063879;28;20579;-73
2022/10/07 04:13:52;;;;;;;4.20;2.50;;;;;;;;;;5067235;28;20184;-73
2022/10/07 04:16:19;;;;;;;5.30;3.13;;;;;;;;;;5063132;28;20184;-73
2022/10/07 04:18:46;;;;;;;5.13;2.90;;;;;;;;;;5061447;28;20189;-73
2022/10/07 04:21:13;;;;;;;6.47;3.50;;;;;;;;;;5077712;28;20239;-73
2022/10/07 04:23:41;;;;;;;4.97;2.80;;;;;;;;;;5069541;28;20194;-73
2022/10/07 04:26:11;;;;;;;5.23;3.00;;;;;;;;;;5069369;28;20212;-73
2022/10/07 04:28:41;;;;;;;7.75;3.58;;;;;;;;;;5060831;28;20509;-74
2022/10/07 04:31:11;;;;;;;4.83;2.90;;;;;;;;;;5063863;28;20208;-74
2022/10/07 04:33:45;;;;;;;6.90;3.03;;;;;;;;;;5063433;28;20249;-73
2022/10/07 04:36:13;;;;;;;7.30;3.70;;;;;;;;;;5067985;28;20191;-73
2022/10/07 04:38:59;;;;;;;7.00;3.40;;;;;;;;;;5064756;28;20184;-73
2022/10/07 04:41:30;;;;;;;5.90;3.10;;;;;;;;;;5062894;28;20273;-73
2022/10/07 04:43:56;;;;;;;5.93;3.30;;;;;;;;;;5069112;28;20180;-73
2022/10/07 04:46:23;;;;;;;8.20;3.30;;;;;;;;;;5065736;28;20306;-73
2022/10/07 04:48:56;;;;;;;5.57;3.17;;;;;;;;;;5087777;28;20179;-73
2022/10/07 04:51:25;;;;;;;4.67;2.97;;;;;;;;;;5069665;28;20688;-74
2022/10/07 04:53:54;;;;;;;6.25;3.30;;;;;;;;;;5060383;28;20417;-73
2022/10/07 04:56:24;;;;;;;6.20;3.10;;;;;;;;;;5069027;28;20180;-73
2022/10/07 04:58:50;;;;;;;6.43;3.10;;;;;;;;;;5067113;28;20369;-73
2022/10/07 05:01:18;;;;;;;7.00;3.10;;;;;;;;;;5060137;28;20421;-73
2022/10/07 05:03:46;;;;;;;7.00;2.80;;;;;;;;;;5059165;28;20637;-74
2022/10/07 05:06:12;;;;;;;5.33;3.20;;;;;;;;;;5078264;28;20208;-73
2022/10/07 05:08:42;;;;;;;4.17;3.13;;;;;;;;;;5057586;28;20234;-73
2022/10/07 05:11:09;;;;;;;6.30;3.60;;;;;;;;;;5061708;28;20285;-74
2022/10/07 05:13:43;;;;;;;7.57;3.40;;;;;;;;;;5062886;28;20286;-74
2022/10/07 05:16:10;;;;;;;5.03;3.47;;;;;;;;;;5060248;28;20180;-74
2022/10/07 05:18:38;;;;;;;4.80;3.30;;;;;;;;;;5063959;28;20509;-74
2022/10/07 05:21:07;;;;;;;5.33;3.20;;;;;;;;;;5053244;28;20216;-73
2022/10/07 05:23:35;;;;;;;5.60;3.10;;;;;;;;;;5068716;28;20191;-74
2022/10/07 05:26:06;;;;;;;7.33;3.80;;;;;;;;;;5067279;28;20212;-74
2022/10/07 05:28:34;;;;;;;6.37;3.10;;;;;;;;;;5063129;28;20217;-74
2022/10/07 05:31:05;;;;;;;5.73;3.10;;;;;;;;;;5067944;28;20278;-73
2022/10/07 05:33:32;;;;;;;5.73;3.30;;;;;;;;;;5067792;28;20648;-73
2022/10/07 05:35:59;;;;;;;6.87;4.27;;;;;;;;;;5061428;28;20188;-74
2022/10/07 05:38:27;;;;;;;6.83;3.80;;;;;;;;;;5065132;28;20177;-74
2022/10/07 05:41:00;;;;;;;7.67;4.00;;;;;;;;;;5038450;28;20417;-74
2022/10/07 05:43:29;;;;;;;7.03;3.70;;;;;;;;;;5068942;28;20283;-73
2022/10/07 05:46:00;;;;;;;7.47;3.63;;;;;;;;;;5063805;28;20210;-74
2022/10/07 05:48:28;;;;;;;8.13;3.60;;;;;;;;;;5062075;28;20168;-73
2022/10/07 05:50:56;;;;;;;5.60;3.27;;;;;;;;;;5066534;28;20207;-74
2022/10/07 05:53:23;;;;;;;6.43;3.40;;;;;;;;;;5061601;28;20276;-73
2022/10/07 05:55:50;;;;;;;7.97;3.90;;;;;;;;;;5055664;28;20398;-74
2022/10/07 05:58:17;;;;;;;7.20;3.73;;;;;;;;;;5060102;28;20180;-74
2022/10/07 06:00:56;;;;;;;7.87;3.67;;;;;;;;;;5081394;28;20185;-73
2022/10/07 06:03:24;;;;;;;7.27;3.40;;;;;;;;;;5060231;28;20188;-74
2022/10/07 06:05:51;;;;;;;5.03;3.80;;;;;;;;;;5068399;28;20208;-74
2022/10/07 06:08:18;;;;;;;8.27;3.40;;;;;;;;;;5068698;28;20187;-73
2022/10/07 06:13:31;;;;;;;10.50;3.70;;;;;;;;;;5067643;28;20196;-74
2022/10/07 06:16:01;;;;;;;5.50;3.70;;;;;;;;;;5069020;28;20176;-73
2022/10/07 06:18:28;;;;;;;8.00;3.63;;;;;;;;;;5058605;28;20193;-73
2022/10/07 06:20:55;;;;;;;10.00;3.40;;;;;;;;;;5054329;28;20693;-73
2022/10/07 06:23:21;;;;;;;7.80;3.73;;;;;;;;;;5069607;28;20173;-74
2022/10/07 06:25:54;;;;;;;5.77;3.50;;;;;;;;;;5077883;28;20204;-74
2022/10/07 06:28:21;;;;;;;8.27;3.63;;;;;;;;;;5064543;28;20656;-74
2022/10/07 06:30:48;;;;;;;8.80;3.70;;;;;;;;;;5067666;28;20716;-74
2022/10/07 06:33:16;;;;;;;7.53;4.17;;;;;;;;;;5068542;28;20176;-74
2022/10/07 06:35:42;;;;;;;8.27;3.80;;;;;;;;;;5071352;28;20177;-75
2022/10/07 06:38:08;;;;;;;8.53;3.97;;;;;;;;;;5072789;28;20189;-74
2022/10/07 06:40:34;;;;;;;5.80;3.83;;;;;;;;;;5067576;28;20663;-74
2022/10/07 06:43:01;;;;;;;7.10;3.80;;;;;;;;;;5065659;28;20192;-74
2022/10/07 06:45:41;;;;;;;6.67;3.97;;;;;;;;;;5061854;28;20827;-74
2022/10/07 06:48:09;;;;;;;8.27;3.37;;;;;;;;;;5061813;28;20180;-74
2022/10/07 06:50:36;;;;;;;6.37;3.87;;;;;;;;;;5082236;28;20176;-74
2022/10/07 06:53:02;;;;;;;6.03;3.73;;;;;;;;;;5065532;28;20181;-74
2022/10/07 06:55:31;;;;;;;9.27;3.87;;;;;;;;;;5066974;28;20184;-74
2022/10/07 06:57:58;;;;;;;7.20;3.67;;;;;;;;;;5068702;28;20189;-74
2022/10/07 07:00:24;;;;;;;8.10;3.60;;;;;;;;;;5086329;28;20259;-74
2022/10/07 07:02:50;;;;;;;7.33;3.70;;;;;;;;;;5063635;28;20219;-74
2022/10/07 07:05:16;;;;;;;8.30;3.63;;;;;;;;;;5053634;28;20299;-74
2022/10/07 07:07:44;;;;;;;7.90;3.43;;;;;;;;;;5068355;28;20662;-74
2022/10/07 07:10:11;;;;;;;8.93;3.70;;;;;;;;;;5058652;28;20177;-74
2022/10/07 07:12:41;;;;;;;5.97;3.70;;;;;;;;;;5060012;28;20226;-74
2022/10/07 07:15:09;;;;;;;7.03;3.20;;;;;;;;;;5064910;28;20215;-75
2022/10/07 07:17:36;;;;;;;5.00;3.50;;;;;;;;;;5063736;28;20238;-74
2022/10/07 07:20:02;;;;;;;5.80;3.40;;;;;;;;;;5075902;28;20740;-75
2022/10/07 07:22:29;;;;;;;7.90;3.60;;;;;;;;;;5045373;28;20207;-74
2022/10/07 07:24:56;;;;;;;8.57;3.93;;;;;;;;;;5063071;28;20242;-75
2022/10/07 07:27:22;;;;;;;7.80;4.00;;;;;;;;;;5064387;28;20184;-75
2022/10/07 07:29:49;;;;;;;7.27;4.57;;;;;;;;;;5085027;28;20177;-75
2022/10/07 07:32:16;;;;;;;9.93;4.07;;;;;;;;;;5065874;28;20243;-74
2022/10/07 07:34:43;;;;;;;6.33;4.40;;;;;;;;;;5061416;28;20586;-74
2022/10/07 07:37:14;;;;;;;7.20;3.83;;;;;;;;;;5087597;28;20173;-74
2022/10/07 07:39:45;;;;;;;8.07;4.10;;;;;;;;;;5064501;28;20828;-74
2022/10/07 07:42:14;;;;;;;8.43;3.90;;;;;;;;;;5065728;28;20204;-74
2022/10/07 07:44:41;;;;;;;8.20;4.23;;;;;;;;;;5076060;28;20293;-74
2022/10/07 07:47:10;;;;;;;7.90;3.80;;;;;;;;;;5059609;28;20304;-74
2022/10/07 07:49:37;;;;;;;9.03;4.03;;;;;;;;;;5061483;28;20217;-74
2022/10/07 07:52:05;;;;;;;6.97;4.00;;;;;;;;;;5060768;28;20196;-74
2022/10/07 07:54:38;;;;;;;11.43;4.10;;;;;;;;;;5044474;28;20271;-74
2022/10/07 07:57:05;;;;;;;6.97;4.20;;;;;;;;;;5077144;28;20181;-74
2022/10/07 07:59:34;;;;;;;5.90;4.00;;;;;;;;;;5061400;28;20204;-74
2022/10/07 08:02:01;;;;;;;9.27;4.00;;;;;;;;;;5061432;28;20200;-74
2022/10/07 08:04:28;;;;;;;5.67;3.73;;;;;;;;;;5059668;28;20212;-74
2022/10/07 08:06:55;;;;;;;7.97;4.00;;;;;;;;;;5041494;28;20184;-72
2022/10/07 08:09:23;;;;;;;7.57;4.03;;;;;;;;;;5078053;28;20691;-72
2022/10/07 08:11:49;;;;;;;11.17;4.30;;;;;;;;;;5076143;28;20540;-72
2022/10/07 08:14:17;;;;;;;7.13;4.17;;;;;;;;;;5060914;28;20650;-73
2022/10/07 08:16:46;;;;;;;10.73;4.40;;;;;;;;;;5088796;28;20185;-76
2022/10/07 08:19:12;;;;;;;10.57;4.23;;;;;;;;;;5063296;28;20839;-73
2022/10/07 08:21:39;;;;;;;8.20;3.97;;;;;;;;;;5076578;28;20204;-76
2022/10/07 08:24:08;;;;;;;8.10;4.40;;;;;;;;;;5055306;28;20277;-76
2022/10/07 08:26:37;;;;;;;6.73;3.90;;;;;;;;;;5061273;28;20188;-76
2022/10/07 08:29:06;;;;;;;7.40;3.43;;;;;;;;;;5062118;28;20252;-76
2022/10/07 08:31:32;;;;;;;7.00;3.90;;;;;;;;;;5028405;28;20189;-76
2022/10/07 08:34:00;;;;;;;7.47;3.97;;;;;;;;;;5079569;28;20182;-76
2022/10/07 08:36:27;;;;;;;6.37;4.07;;;;;;;;;;5077920;28;20536;-76
2022/10/07 08:38:53;;;;;;;8.47;3.77;;;;;;;;;;5078805;28;20591;-76
2022/10/07 08:41:22;;;;;;;8.33;3.80;;;;;;;;;;5077812;28;20686;-76
2022/10/07 08:43:49;;;;;;;5.83;4.27;;;;;;;;;;5078192;28;20592;-76
2022/10/07 08:46:22;;;;;;;9.30;4.33;;;;;;;;;;5078427;28;20197;-76
2022/10/07 08:49:11;;;;;;;6.17;4.10;;;;;;;;;;5076937;28;20185;-76
2022/10/07 08:51:38;;;;;;;6.87;4.37;;;;;;;;;;5067967;28;20216;-76
2022/10/07 08:54:04;;;;;;;10.40;4.90;;;;;;;;;;5078174;28;20185;-76
2022/10/07 08:56:32;;;;;;;9.50;4.80;;;;;;;;;;5074003;28;20176;-76
2022/10/07 08:59:22;;;;;;;8.93;4.30;;;;;;;;;;5078294;28;20700;-76
2022/10/07 09:02:04;;;;;;;6.37;3.97;;;;;;;;;;5080289;28;20296;-75
2022/10/07 09:04:42;;;;;;;8.33;4.00;;;;;;;;;;5081934;28;20261;-75
2022/10/07 09:07:14;;;;;;;6.67;4.17;;;;;;;;;;5056987;28;20177;-79
2022/10/07 09:09:52;;;;;;;8.10;4.17;;;;;;;;;;5078460;28;20184;-79
2022/10/07 09:12:28;;;;;;;6.57;4.10;;;;;;;;;;5075236;28;20197;-79
2022/10/07 09:14:57;;;;;;;6.13;3.60;;;;;;;;;;5076352;28;20206;-77
2022/10/07 09:17:30;;;;;;;7.27;3.80;;;;;;;;;;5078588;28;20177;-79
2022/10/07 09:20:01;;;;;;;6.40;3.97;;;;;;;;;;5072581;28;20184;-78
2022/10/07 09:22:32;;;;;;;7.17;3.87;;;;;;;;;;5077555;28;20199;-78
2022/10/07 09:25:17;;;;;;;8.70;3.90;;;;;;;;;;5082568;28;20204;-85
2022/10/07 09:27:43;;;;;;;9.33;4.50;;;;;;;;;;5065205;28;20187;-82
2022/10/07 09:30:13;;;;;;;6.40;3.90;;;;;;;;;;5047927;28;20197;-77
2022/10/07 09:32:41;;;;;;;6.53;3.73;;;;;;;;;;5077818;28;20310;-79
2022/10/07 09:35:11;;;;;;;7.63;3.90;;;;;;;;;;5082584;28;20651;-81
2022/10/07 09:37:53;;;;;;;8.50;3.40;;;;;;;;;;5078893;28;20185;-78
2022/10/07 09:40:21;;;;;;;8.33;3.90;;;;;;;;;;5082455;28;20187;-80
2022/10/07 09:42:48;;;;;;;6.77;3.77;;;;;;;;;;5058352;28;20193;-79
2022/10/07 09:45:21;;;;;;;5.20;3.63;;;;;;;;;;5076601;28;20200;-78
2022/10/07 09:47:55;;;;;;;7.83;3.70;;;;;;;;;;5076326;28;20700;-79
2022/10/07 09:50:35;;;;;;;6.63;3.70;;;;;;;;;;5079868;28;20173;-78
2022/10/07 09:53:02;;;;;;;7.87;4.07;;;;;;;;;;5063873;28;20185;-78
2022/10/07 09:55:39;;;;;;;7.90;3.83;;;;;;;;;;5072697;28;20234;-78
2022/10/07 09:58:15;;;;;;;7.80;4.13;;;;;;;;;;5075511;28;20233;-78
2022/10/07 10:00:43;;;;;;;11.13;4.30;;;;;;;;;;5082453;28;20743;-78
2022/10/07 10:03:10;;;;;;;8.87;4.03;;;;;;;;;;5082446;28;20187;-78
2022/10/07 10:05:37;;;;;;;7.63;3.87;;;;;;;;;;5077351;28;20204;-78
2022/10/07 10:08:18;;;;;;;6.57;3.67;;;;;;;;;;5080823;28;20184;-76
2022/10/07 10:10:52;;;;;;;7.40;3.63;;;;;;;;;;5076263;28;20188;-77
2022/10/07 10:13:24;;;;;;;7.57;3.67;;;;;;;;;;5079658;28;20208;-77
2022/10/07 10:15:51;;;;;;;9.13;3.80;;;;;;;;;;5079214;28;20537;-81
2022/10/07 10:18:29;;;;;;;8.27;3.57;;;;;;;;;;5051088;28;20185;-81
2022/10/07 10:20:56;;;;;;;7.47;3.60;;;;;;;;;;5046402;28;20269;-83
2022/10/07 10:23:28;;;;;;;6.50;3.53;;;;;;;;;;5064246;28;20188;-79
2022/10/07 10:26:27;;;;;;;8.20;3.70;;;;;;;;;;5081965;28;20921;-81
2022/10/07 10:29:12;;;;;;;8.33;3.70;;;;;;;;;;5084332;28;20238;-81
2022/10/07 10:31:58;;;;;;;8.77;3.30;;;;;;;;;;5083780;28;20205;-79
2022/10/07 10:34:34;;;;;;;9.03;3.70;;;;;;;;;;5084810;28;20177;-79
2022/10/07 10:37:17;;;;;;;6.20;3.33;;;;;;;;;;5085514;28;20633;-79
2022/10/07 10:39:56;;;;;;;8.20;4.10;;;;;;;;;;5087115;28;20192;-77
2022/10/07 10:42:27;;;;;;;5.83;3.20;;;;;;;;;;5071715;28;20219;-75
2022/10/07 10:45:01;;;;;;;8.70;3.70;;;;;;;;;;5081324;28;20201;-76
2022/10/07 10:47:41;;;;;;;7.03;4.10;;;;;;;;;;5083429;28;20176;-77
2022/10/07 10:50:14;;;;;;;7.33;4.00;;;;;;;;;;5083572;28;20995;-79
2022/10/07 10:52:45;;;;;;;7.60;3.70;;;;;;;;;;5091537;28;20257;-80
2022/10/07 10:55:32;;;;;;;8.30;3.73;;;;;;;;;;5084638;28;20271;-77
2022/10/07 10:58:01;;;;;;;6.63;3.60;;;;;;;;;;5079652;28;20181;-78
2022/10/07 11:00:51;;;;;;;9.03;3.90;;;;;;;;;;5084775;28;20246;-78
2022/10/07 11:03:33;;;;;;;5.63;2.83;;;;;;;;;;5077780;28;20561;-82
2022/10/07 11:06:15;;;;;;;7.80;3.60;;;;;;;;;;5085532;28;20209;-77
2022/10/07 11:08:42;;;;;;;7.30;3.40;;;;;;;;;;5063757;28;20188;-77
2022/10/07 11:11:14;;;;;;;10.57;3.90;;;;;;;;;;5081074;28;20283;-78
2022/10/07 11:13:59;;;;;;;5.13;2.90;;;;;;;;;;5081559;28;20302;-77
2022/10/07 11:16:26;;;;;;;6.17;3.00;;;;;;;;;;5086252;28;20181;-76
2022/10/07 11:18:59;;;;;;;6.50;2.43;;;;;;;;;;5078535;28;20330;-77
2022/10/07 11:21:40;;;;;;;6.93;2.77;;;;;;;;;;5080722;28;20204;-78
2022/10/07 11:24:15;;;;;;;5.07;2.97;;;;;;;;;;5064483;28;20685;-77
2022/10/07 11:26:57;;;;;;;4.77;2.53;;;;;;;;;;5078950;28;20266;-77
2022/10/07 11:29:39;;;;;;;7.17;2.70;;;;;;;;;;5080198;28;20189;-78
2022/10/07 11:32:22;;;;;;;4.20;2.30;;;;;;;;;;5060856;28;20212;-78
2022/10/07 11:34:49;;;;;;;6.07;2.10;;;;;;;;;;5075882;28;20268;-78
2022/10/07 11:37:18;;;;;;;5.17;2.30;;;;;;;;;;5049069;28;20280;-77
2022/10/07 11:39:45;;;;;;;7.13;2.10;;;;;;;;;;5082122;28;20184;-79
2022/10/07 11:42:21;;;;;;;5.27;2.23;;;;;;;;;;5062656;28;20254;-79
2022/10/07 11:45:02;;;;;;;3.83;2.10;;;;;;;;;;5082074;28;20742;-78
2022/10/07 11:47:56;;;;;;;4.50;2.40;;;;;;;;;;5079928;28;20261;-79
2022/10/07 11:50:26;;;;;;;4.37;2.07;;;;;;;;;;5079915;28;20202;-79
2022/10/07 11:53:00;;;;;;;6.77;2.80;;;;;;;;;;5063279;28;20541;-79
2022/10/07 11:55:38;;;;;;;5.40;2.67;;;;;;;;;;5062383;28;20272;-79
2022/10/07 11:58:24;;;;;;;7.97;2.67;;;;;;;;;;5080064;28;20181;-79
2022/10/07 12:01:17;;;;;;;6.20;2.47;;;20.00;60.70;;;;;;5060066;28;20204;-79
2022/10/07 12:03:51;;;;;;;5.53;2.60;;;19.90;62.00;;;;;;5068613;28;20200;-79
2022/10/07 12:06:28;;;;;;;8.70;2.50;;;20.00;60.90;;;;;;5080923;28;20309;-83
2022/10/07 12:09:38;;;;;;;5.93;2.40;;;20.00;60.80;;;;;;5063248;28;20177;-77
2022/10/07 12:12:12;;;;;;;5.03;2.27;;;20.10;59.40;;;;;;5059588;28;20261;-77
2022/10/07 12:14:56;;;;;;;6.93;2.30;;;20.10;59.90;;;;;;5077557;28;20180;-77
2022/10/07 12:17:29;;;;;;;6.60;2.60;;;20.40;59.40;;;;;;5079379;28;20570;-77
2022/10/07 12:20:36;;;;;;;7.47;2.40;;;20.80;58.60;;;;;;5076219;28;20207;-77
2022/10/07 12:23:18;;;;;;;7.37;2.77;;;21.00;57.10;;;;;;5081151;28;20266;-77
2022/10/07 12:25:48;;;;;;;5.33;2.93;;;21.60;56.80;;;;;;5075478;28;20212;-77
2022/10/07 12:28:35;;;;;;;6.90;2.63;;;22.10;56.70;;;;;;5079612;28;20187;-77
2022/10/07 12:31:14;;;;;;;6.07;2.60;;;22.50;55.80;;;;;;5077812;28;20201;-77
2022/10/07 12:33:46;;;;;;;7.07;2.83;;;22.90;55.10;;;;;;5076891;28;20267;-77
2022/10/07 12:36:22;;;;;;;6.67;3.10;;;23.10;54.40;;;;;;5077387;28;20846;-77
2022/10/07 12:38:58;;;;;;;5.67;2.90;;;23.30;54.20;;;;;;5076402;28;20183;-77
2022/10/07 12:41:42;;;;;;;5.63;3.03;;;23.70;54.40;;;;;;5078470;28;20231;-77
2022/10/07 12:44:22;;;;;;;7.20;3.43;;;23.80;53.90;;;;;;5061491;28;20249;-77
2022/10/07 12:46:57;;;;;;;5.67;3.37;;;24.00;54.30;;;;;;5080761;28;20785;-77
2022/10/07 12:49:36;;;;;;;6.13;3.23;;;24.20;53.40;;;;;;5077773;28;20200;-78
2022/10/07 12:52:29;;;;;;;8.33;3.73;;;24.60;53.10;;;;;;5075858;28;21086;-78
2022/10/07 12:55:06;;;;;;;5.87;3.10;;;24.80;52.80;;;;;;5063829;28;20199;-78
2022/10/07 12:57:35;;;;;;;7.57;3.57;;;25.20;51.80;;;;;;5076748;28;20181;-78
2022/10/07 13:00:06;;;;;;;5.90;3.40;;;25.30;51.60;;;;;;5077322;28;20184;-78
2022/10/07 13:02:59;;;;;;;7.70;3.53;;;25.20;52.00;;;;;;5075778;28;20212;-78
2022/10/07 13:05:29;;;;;;;7.43;4.30;;;25.50;51.50;;;;;;5078385;28;20241;-78
2022/10/07 13:08:16;;;;;;;8.53;3.67;;;25.90;51.90;;;;;;5077623;28;20204;-78
2022/10/07 13:10:54;;;;;;;6.33;3.57;;;26.10;50.70;;;;;;5083189;28;20632;-78
2022/10/07 13:13:32;;;;;;;9.63;3.90;;;26.20;51.40;;;;;;5078923;28;20189;-78
2022/10/07 13:16:14;;;;;;;6.97;3.77;;;26.60;50.20;;;;;;5078710;28;20187;-79
2022/10/07 13:18:45;;;;;;;8.57;4.10;;;26.80;50.20;;;;;;5084089;28;20904;-77
2022/10/07 13:21:35;;;;;;;5.70;3.30;;;26.70;50.30;;;;;;5070464;28;20198;-78
2022/10/07 13:24:01;;;;;;;7.33;4.17;;;26.90;50.40;;;;;;5067250;28;20173;-76
2022/10/07 13:26:27;;;;;;;6.33;3.73;;;26.80;49.60;;;;;;5085032;28;20214;-77
2022/10/07 13:28:56;;;;;;;8.97;3.43;;;26.70;50.30;;;;;;5085864;28;20706;-77
2022/10/07 13:31:27;;;;;;;9.20;4.20;;;27.20;50.30;;;;;;5078440;28;20289;-78
2022/10/07 13:33:54;;;;;;;9.10;4.33;;;27.50;49.80;;;;;;5083001;28;20574;-77
2022/10/07 13:36:25;;;;;;;6.83;3.60;;;27.60;49.50;;;;;;5076197;28;20186;-77
2022/10/07 13:39:18;;;;;;;7.07;3.73;;;27.60;49.20;;;;;;5083942;28;20263;-76
2022/10/07 13:41:46;;;;;;;6.07;4.03;;;27.60;49.00;;;;;;5077731;28;21481;-78
2022/10/07 13:44:14;;;;;;;6.23;3.67;;;27.20;49.60;;;;;;5073882;28;20680;-77
2022/10/07 13:47:09;;;;;;;6.97;3.60;;;26.90;49.30;;;;;;5059780;28;20858;-77
2022/10/07 13:49:42;;;;;;;9.30;4.03;;;26.70;50.00;;;;;;5078021;28;20178;-77
2022/10/07 13:52:30;;;;;;;7.53;4.10;;;26.60;50.10;;;;;;5072785;28;20225;-77
2022/10/07 13:54:56;;;;;;;9.10;4.40;;;26.60;50.10;;;;;;5072643;28;20703;-77
2022/10/07 13:57:23;;;;;;;6.50;3.10;;;26.60;50.10;;;;;;5084037;28;20181;-77
2022/10/07 13:59:50;;;;;;;7.23;4.30;;;26.70;50.20;;;;;;5081909;28;20203;-77
2022/10/07 14:02:19;;;;;;;7.17;4.03;;;26.60;50.60;;;;;;5085024;28;20200;-77
2022/10/07 14:05:03;;;;;;;6.43;3.50;;;26.60;50.40;;;;;;5077632;28;20273;-77
2022/10/07 14:07:29;;;;;;;7.83;3.80;;;26.80;50.50;;;;;;5080480;28;20183;-77
2022/10/07 14:09:58;;;;;;;7.57;4.07;;;27.00;50.30;;;;;;5051959;28;20993;-77
2022/10/07 14:12:28;;;;;;;9.93;3.83;;;27.20;49.90;;;;;;5083203;28;20193;-77
2022/10/07 14:15:00;;;;;;;7.40;4.43;;;27.50;49.10;;;;;;5064534;28;20256;-77
2022/10/07 14:17:53;;;;;;;8.73;4.03;;;27.60;49.70;;;;;;5082225;28;20867;-77
2022/10/07 14:20:19;;;;;;;8.63;4.07;;;27.50;48.80;;;;;;5057755;28;20881;-77
2022/10/07 14:22:55;;;;;;;7.87;4.20;;;27.20;49.20;;;;;;5067715;28;20201;-77
2022/10/07 14:25:27;;;;;;;10.47;5.20;;;26.70;49.60;;;;;;5089282;28;20795;-77
2022/10/07 14:27:56;;;;;;;8.67;4.10;;;26.60;50.30;;;;;;5089989;28;20189;-77
2022/10/07 14:36:11;;;;;;;6.97;3.67;;;26.50;50.80;;;;;;5072885;28;20602;-77
2022/10/07 14:38:38;;;;;;;8.37;3.80;;;26.40;50.60;;;;;;5089937;28;20267;-77
2022/10/07 14:41:04;;;;;;;7.17;4.17;;;26.30;51.20;;;;;;5089276;28;20276;-78
2022/10/07 14:43:32;;;;;;;7.53;3.90;;;26.00;51.40;;;;;;5087736;28;20249;-77
2022/10/07 14:46:10;;;;;;;7.33;3.90;;;25.40;51.60;;;;;;5082252;28;20302;-74
2022/10/07 14:48:37;;;;;;;5.83;3.63;;;24.80;52.50;;;;;;5083307;28;20188;-76
2022/10/07 14:51:03;;;;;;;10.53;4.70;;;24.40;53.20;;;;;;5082149;28;20216;-76
2022/10/07 14:53:29;;;;;;;6.07;3.73;;;24.10;53.30;;;;;;5077750;28;20680;-77